Rockport, WA (98283)

12:17 AM PDT on August 22, 2014 (GMT -0700)
Glacier View Internet | Change Station
CLOSE
Current Station
Personal Weather Station
Location: Darrington, WA
Elevation: 549 ft
Nearby Weather Stations

Elev 549 ft 48.25 °N, 121.61 °W | Updated 2 minutes ago

Clear
Clear
54.1 °F
Feels Like 54.1 °F
N
0.0
Wind Variable Wind from ENE
Gusts 1.0 mph

Today
High -- | Low -- °F
--% Chance of Precip.
Yesterday
High -- | Low -- °F
Precip. -- in
6:09 AM 8:07 PM
Waning Crescent, 10% visible
Pressure 30.02 in
Visibility 10.0 miles
Clouds Clear
Dew Point 52 °F
Humidity 94%
Rainfall 0.00 in
Snow Depth Not available.
UV 0 out of 12
Pollen 2.60 out of 12
PM2.5 Good
Flu Activity Not available.
METAR KAWO 220655Z AUTO 35003KT 10SM CLR 13/10 A3002 RMK AO1

More Conditions Fewer Conditions

Pressure 30.02 in
Visibility 10.0 miles
Clouds Clear
Dew Point 52 °F
Humidity 94%
Rainfall 0.00 in
Snow Depth Not available.
UV 0 out of 12
Pollen 2.60 out of 12
PM2.5 Good
Flu Activity Not available.
METAR KAWO 220655Z AUTO 35003KT 10SM CLR 13/10 A3002 RMK AO1

More Conditions Fewer Conditions

10-Day Weather Forecast

Almanac

Astronomy

Aug. 22, 2014 Rise Set
Actual Time 6:09 AM PDT 8:07 PM PDT
Civil Twilight 5:35 AM PDT 8:40 PM PDT
Nautical Twilight 4:54 AM PDT 9:22 PM PDT
Astronomical Twilight 4:07 AM PDT 10:08 PM PDT
Moon 3:31 AM PDT 6:22 PM PDT
Length of Visible Light 15h 04m
Length of Day
13h 57m
Tomorrow will be 3m 19s shorter.
Waning Crescent, 10% of the Moon is Illuminated
Today
Waning Crescent
Aug 25
New
Sep 2
First Quarter
Sep 8
Full
Sep 15
Last Quarter

Community

WunderPhotos

Upload Photos

1,746,131 photos uploaded!

Nearby

Air Quality

  Air Quality AQ Index Pollutant
Yesterday Good
PM2.5
Current Good
PM2.5
Thursday Good
OZONE
Thursday Good
PM2.5
Friday Good
OZONE
Friday Good
PM2.5
Saturday Good
OZONE
Saturday Good
PM2.5
Sunday Good
OZONE
Sunday Good
PM2.5
Monday Good
OZONE
Monday Good
PM2.5
Tuesday Good
OZONE
Tuesday Good
PM2.5

Snow Depth

Station Depth Elevation
Elbow Lake 0 in 3200 ft
Mf Nooksack 0 in 4980 ft
Beaver Pass 0 in 3620 ft
Lyman Lake 0 in 5900 ft
Rainy Pass 0 in 4780 ft

Earthquake Activity

City Distance Mag. Time & Date
No recent earthquake activity has been reported nearby.
Minimum magnitude displayed is 2.5.

Coastal Water Temperatures

Place Temperature
No Stations Reporting

Nearby Weather Stations